sensor_id;sensor_type;location;lat;lon;timestamp;P1;durP1;ratioP1;P2;durP2;ratioP2
44366;SDS011;30086;57.660;12.000;2023-09-19T06:50:23;7.07;;;2.05;;
44366;SDS011;30086;57.660;12.000;2023-09-19T06:53:43;7.82;;;2.08;;
44366;SDS011;30086;57.660;12.000;2023-09-19T06:56:47;7.15;;;1.70;;
44366;SDS011;30086;57.660;12.000;2023-09-19T07:00:11;9.45;;;2.47;;
44366;SDS011;30086;57.660;12.000;2023-09-19T07:06:26;9.23;;;1.55;;
44366;SDS011;30086;57.660;12.000;2023-09-19T07:09:34;8.93;;;1.90;;
44366;SDS011;30086;57.660;12.000;2023-09-19T07:15:35;10.88;;;2.50;;
44366;SDS011;30086;57.660;12.000;2023-09-19T07:24:32;15.30;;;2.75;;
44366;SDS011;30086;57.660;12.000;2023-09-19T07:27:20;7.78;;;1.60;;
44366;SDS011;30086;57.660;12.000;2023-09-19T07:36:38;7.57;;;2.08;;
44366;SDS011;30086;57.660;12.000;2023-09-19T07:39:27;8.95;;;2.38;;
44366;SDS011;30086;57.660;12.000;2023-09-19T07:42:26;11.77;;;2.05;;
44366;SDS011;30086;57.660;12.000;2023-09-19T07:45:24;5.55;;;2.50;;
44366;SDS011;30086;57.660;12.000;2023-09-19T07:54:45;11.88;;;2.55;;
44366;SDS011;30086;57.660;12.000;2023-09-19T07:57:19;12.75;;;3.15;;
44366;SDS011;30086;57.660;12.000;2023-09-19T07:59:50;11.48;;;3.13;;
44366;SDS011;30086;57.660;12.000;2023-09-19T08:02:37;10.43;;;2.45;;
44366;SDS011;30086;57.660;12.000;2023-09-19T08:05:43;7.78;;;1.70;;
44366;SDS011;30086;57.660;12.000;2023-09-19T08:08:16;13.65;;;3.33;;
44366;SDS011;30086;57.660;12.000;2023-09-19T08:11:00;16.58;;;2.65;;
44366;SDS011;30086;57.660;12.000;2023-09-19T08:14:07;6.20;;;1.85;;
44366;SDS011;30086;57.660;12.000;2023-09-19T08:16:56;12.18;;;3.50;;
44366;SDS011;30086;57.660;12.000;2023-09-19T08:19:45;10.38;;;2.63;;
44366;SDS011;30086;57.660;12.000;2023-09-19T08:22:32;12.85;;;2.92;;
44366;SDS011;30086;57.660;12.000;2023-09-19T08:25:00;14.38;;;3.58;;
44366;SDS011;30086;57.660;12.000;2023-09-19T08:27:32;11.05;;;2.78;;
44366;SDS011;30086;57.660;12.000;2023-09-19T08:30:03;11.27;;;3.28;;
44366;SDS011;30086;57.660;12.000;2023-09-19T08:32:32;10.15;;;2.60;;
44366;SDS011;30086;57.660;12.000;2023-09-19T08:34:58;10.02;;;2.20;;
44366;SDS011;30086;57.660;12.000;2023-09-19T08:37:25;11.82;;;2.97;;
44366;SDS011;30086;57.660;12.000;2023-09-19T08:39:57;20.10;;;3.75;;
44366;SDS011;30086;57.660;12.000;2023-09-19T08:42:26;12.75;;;3.15;;
44366;SDS011;30086;57.660;12.000;2023-09-19T08:44:53;11.73;;;3.40;;
44366;SDS011;30086;57.660;12.000;2023-09-19T08:47:33;10.32;;;3.05;;
44366;SDS011;30086;57.660;12.000;2023-09-19T08:52:45;9.57;;;2.50;;
44366;SDS011;30086;57.660;12.000;2023-09-19T08:55:13;10.30;;;2.42;;
44366;SDS011;30086;57.660;12.000;2023-09-19T08:57:46;6.13;;;1.90;;
44366;SDS011;30086;57.660;12.000;2023-09-19T09:00:15;16.30;;;3.33;;
44366;SDS011;30086;57.660;12.000;2023-09-19T09:02:47;6.97;;;1.80;;
44366;SDS011;30086;57.660;12.000;2023-09-19T09:05:22;8.00;;;2.00;;
44366;SDS011;30086;57.660;12.000;2023-09-19T09:07:56;10.18;;;2.65;;
44366;SDS011;30086;57.660;12.000;2023-09-19T09:10:34;10.95;;;2.33;;
44366;SDS011;30086;57.660;12.000;2023-09-19T09:13:00;12.25;;;2.88;;
44366;SDS011;30086;57.660;12.000;2023-09-19T09:15:28;8.77;;;2.40;;
44366;SDS011;30086;57.660;12.000;2023-09-19T09:17:58;9.88;;;2.20;;
44366;SDS011;30086;57.660;12.000;2023-09-19T09:20:24;4.72;;;2.20;;
44366;SDS011;30086;57.660;12.000;2023-09-19T09:22:56;6.97;;;1.85;;
44366;SDS011;30086;57.660;12.000;2023-09-19T09:28:21;7.07;;;1.85;;
44366;SDS011;30086;57.660;12.000;2023-09-19T09:30:48;5.60;;;1.83;;
44366;SDS011;30086;57.660;12.000;2023-09-19T09:33:23;7.50;;;1.73;;
44366;SDS011;30086;57.660;12.000;2023-09-19T09:35:52;9.65;;;1.70;;
44366;SDS011;30086;57.660;12.000;2023-09-19T09:38:25;5.88;;;1.65;;
44366;SDS011;30086;57.660;12.000;2023-09-19T09:40:59;3.80;;;1.75;;
44366;SDS011;30086;57.660;12.000;2023-09-19T09:43:34;5.13;;;1.75;;
44366;SDS011;30086;57.660;12.000;2023-09-19T09:46:21;7.97;;;1.65;;
44366;SDS011;30086;57.660;12.000;2023-09-19T09:48:47;5.70;;;1.60;;
44366;SDS011;30086;57.660;12.000;2023-09-19T09:51:33;4.18;;;1.00;;
44366;SDS011;30086;57.660;12.000;2023-09-19T09:54:10;5.20;;;1.67;;
44366;SDS011;30086;57.660;12.000;2023-09-19T10:02:37;4.63;;;1.52;;
44366;SDS011;30086;57.660;12.000;2023-09-19T10:05:12;2.65;;;0.80;;
44366;SDS011;30086;57.660;12.000;2023-09-19T10:07:55;2.75;;;1.15;;
44366;SDS011;30086;57.660;12.000;2023-09-19T10:10:33;5.13;;;1.35;;
44366;SDS011;30086;57.660;12.000;2023-09-19T10:13:40;5.72;;;1.27;;
44366;SDS011;30086;57.660;12.000;2023-09-19T10:16:46;2.28;;;0.73;;
44366;SDS011;30086;57.660;12.000;2023-09-19T10:22:14;6.47;;;1.13;;
44366;SDS011;30086;57.660;12.000;2023-09-19T10:25:29;13.25;;;2.40;;
44366;SDS011;30086;57.660;12.000;2023-09-19T10:28:41;6.25;;;1.90;;
44366;SDS011;30086;57.660;12.000;2023-09-19T10:31:19;8.23;;;1.50;;
44366;SDS011;30086;57.660;12.000;2023-09-19T10:34:02;8.90;;;2.05;;
44366;SDS011;30086;57.660;12.000;2023-09-19T10:37:05;4.47;;;1.20;;
44366;SDS011;30086;57.660;12.000;2023-09-19T10:40:27;8.15;;;2.50;;
44366;SDS011;30086;57.660;12.000;2023-09-19T10:43:25;5.57;;;1.75;;
44366;SDS011;30086;57.660;12.000;2023-09-19T10:46:17;7.63;;;1.67;;
44366;SDS011;30086;57.660;12.000;2023-09-19T10:49:26;11.07;;;1.42;;
44366;SDS011;30086;57.660;12.000;2023-09-19T10:52:37;7.47;;;1.55;;
44366;SDS011;30086;57.660;12.000;2023-09-19T10:56:01;10.80;;;1.83;;
44366;SDS011;30086;57.660;12.000;2023-09-19T10:58:49;5.85;;;1.38;;
44366;SDS011;30086;57.660;12.000;2023-09-19T11:01:20;3.28;;;1.30;;
44366;SDS011;30086;57.660;12.000;2023-09-19T11:04:28;4.57;;;1.40;;
44366;SDS011;30086;57.660;12.000;2023-09-19T11:10:07;5.03;;;1.45;;
44366;SDS011;30086;57.660;12.000;2023-09-19T11:13:29;4.80;;;1.73;;
44366;SDS011;30086;57.660;12.000;2023-09-19T11:32:18;7.15;;;1.95;;
44366;SDS011;30086;57.660;12.000;2023-09-19T11:35:37;4.28;;;1.23;;
44366;SDS011;30086;57.660;12.000;2023-09-19T11:38:16;5.07;;;1.13;;
44366;SDS011;30086;57.660;12.000;2023-09-19T11:44:32;9.65;;;1.42;;
44366;SDS011;30086;57.660;12.000;2023-09-19T11:47:39;5.32;;;1.40;;
44366;SDS011;30086;57.660;12.000;2023-09-19T11:50:44;4.65;;;1.75;;
44366;SDS011;30086;57.660;12.000;2023-09-19T11:53:41;6.00;;;1.80;;
44366;SDS011;30086;57.660;12.000;2023-09-19T12:02:39;5.70;;;1.85;;
44366;SDS011;30086;57.660;12.000;2023-09-19T12:05:11;7.57;;;1.80;;
44366;SDS011;30086;57.660;12.000;2023-09-19T12:07:58;4.70;;;1.20;;
44366;SDS011;30086;57.660;12.000;2023-09-19T12:10:57;7.10;;;2.05;;
44366;SDS011;30086;57.660;12.000;2023-09-19T12:14:21;5.53;;;1.17;;
44366;SDS011;30086;57.660;12.000;2023-09-19T12:17:40;6.60;;;1.42;;
44366;SDS011;30086;57.660;12.000;2023-09-19T12:23:40;5.32;;;1.77;;
44366;SDS011;30086;57.660;12.000;2023-09-19T12:26:46;5.68;;;1.25;;
44366;SDS011;30086;57.660;12.000;2023-09-19T12:32:46;8.57;;;1.65;;
44366;SDS011;30086;57.660;12.000;2023-09-19T12:35:39;5.18;;;1.45;;
44366;SDS011;30086;57.660;12.000;2023-09-19T12:38:58;8.98;;;1.90;;
44366;SDS011;30086;57.660;12.000;2023-09-19T12:44:20;9.80;;;1.95;;
44366;SDS011;30086;57.660;12.000;2023-09-19T12:47:27;8.27;;;2.08;;
44366;SDS011;30086;57.660;12.000;2023-09-19T12:50:31;10.43;;;2.17;;
44366;SDS011;30086;57.660;12.000;2023-09-19T12:52:59;9.45;;;2.85;;
44366;SDS011;30086;57.660;12.000;2023-09-19T12:55:45;10.52;;;1.60;;
44366;SDS011;30086;57.660;12.000;2023-09-19T12:58:14;7.82;;;1.75;;
44366;SDS011;30086;57.660;12.000;2023-09-19T13:01:16;7.55;;;1.42;;
44366;SDS011;30086;57.660;12.000;2023-09-19T13:10:58;12.07;;;2.38;;
44366;SDS011;30086;57.660;12.000;2023-09-19T13:16:28;8.95;;;2.60;;
44366;SDS011;30086;57.660;12.000;2023-09-19T13:19:09;9.02;;;2.10;;
44366;SDS011;30086;57.660;12.000;2023-09-19T13:21:39;9.70;;;2.03;;
44366;SDS011;30086;57.660;12.000;2023-09-19T13:24:36;10.52;;;2.05;;
44366;SDS011;30086;57.660;12.000;2023-09-19T13:27:24;9.23;;;1.95;;
44366;SDS011;30086;57.660;12.000;2023-09-19T13:29:58;5.57;;;1.50;;
44366;SDS011;30086;57.660;12.000;2023-09-19T13:32:28;10.55;;;2.58;;
44366;SDS011;30086;57.660;12.000;2023-09-19T13:35:28;4.80;;;1.38;;
44366;SDS011;30086;57.660;12.000;2023-09-19T13:38:02;6.95;;;1.98;;
44366;SDS011;30086;57.660;12.000;2023-09-19T13:40:41;6.75;;;1.80;;
44366;SDS011;30086;57.660;12.000;2023-09-19T13:43:25;8.23;;;2.03;;
44366;SDS011;30086;57.660;12.000;2023-09-19T13:46:16;8.23;;;1.70;;
44366;SDS011;30086;57.660;12.000;2023-09-19T13:51:50;9.98;;;1.80;;
44366;SDS011;30086;57.660;12.000;2023-09-19T13:54:20;4.47;;;1.40;;
44366;SDS011;30086;57.660;12.000;2023-09-19T13:56:56;9.93;;;1.88;;
44366;SDS011;30086;57.660;12.000;2023-09-19T13:59:34;10.65;;;2.70;;
44366;SDS011;30086;57.660;12.000;2023-09-19T14:02:02;7.65;;;2.03;;
44366;SDS011;30086;57.660;12.000;2023-09-19T14:04:43;12.77;;;1.98;;
44366;SDS011;30086;57.660;12.000;2023-09-19T14:07:51;10.50;;;2.17;;
44366;SDS011;30086;57.660;12.000;2023-09-19T14:10:31;6.15;;;2.05;;
44366;SDS011;30086;57.660;12.000;2023-09-19T14:13:00;8.45;;;2.13;;
44366;SDS011;30086;57.660;12.000;2023-09-19T14:15:31;11.25;;;2.33;;
44366;SDS011;30086;57.660;12.000;2023-09-19T14:18:22;7.50;;;1.85;;
44366;SDS011;30086;57.660;12.000;2023-09-19T14:20:49;10.43;;;1.85;;
44366;SDS011;30086;57.660;12.000;2023-09-19T14:23:53;9.18;;;2.22;;
44366;SDS011;30086;57.660;12.000;2023-09-19T14:26:42;7.45;;;1.90;;
44366;SDS011;30086;57.660;12.000;2023-09-19T14:29:23;5.35;;;1.83;;
44366;SDS011;30086;57.660;12.000;2023-09-19T14:32:11;5.45;;;1.92;;
44366;SDS011;30086;57.660;12.000;2023-09-19T14:34:37;8.65;;;1.95;;
44366;SDS011;30086;57.660;12.000;2023-09-19T14:37:11;8.50;;;1.98;;
44366;SDS011;30086;57.660;12.000;2023-09-19T14:40:15;8.05;;;1.45;;
44366;SDS011;30086;57.660;12.000;2023-09-19T14:43:09;10.82;;;2.65;;
44366;SDS011;30086;57.660;12.000;2023-09-19T14:45:57;8.27;;;2.15;;
44366;SDS011;30086;57.660;12.000;2023-09-19T14:48:28;12.55;;;2.08;;
44366;SDS011;30086;57.660;12.000;2023-09-19T14:51:25;12.27;;;2.33;;
44366;SDS011;30086;57.660;12.000;2023-09-19T14:54:08;7.10;;;1.70;;
44366;SDS011;30086;57.660;12.000;2023-09-19T14:56:38;6.93;;;2.17;;
44366;SDS011;30086;57.660;12.000;2023-09-19T14:59:27;6.68;;;2.10;;
44366;SDS011;30086;57.660;12.000;2023-09-19T15:02:03;5.60;;;1.67;;
44366;SDS011;30086;57.660;12.000;2023-09-19T15:04:53;8.25;;;2.53;;
44366;SDS011;30086;57.660;12.000;2023-09-19T15:07:46;9.88;;;2.67;;
44366;SDS011;30086;57.660;12.000;2023-09-19T15:10:35;8.27;;;2.45;;
44366;SDS011;30086;57.660;12.000;2023-09-19T15:13:35;12.63;;;2.22;;
44366;SDS011;30086;57.660;12.000;2023-09-19T15:16:25;11.68;;;2.60;;
44366;SDS011;30086;57.660;12.000;2023-09-19T15:22:13;8.23;;;2.22;;
44366;SDS011;30086;57.660;12.000;2023-09-19T15:25:30;11.25;;;2.30;;
44366;SDS011;30086;57.660;12.000;2023-09-19T15:28:50;17.00;;;3.15;;
44366;SDS011;30086;57.660;12.000;2023-09-19T15:42:12;14.93;;;2.40;;
44366;SDS011;30086;57.660;12.000;2023-09-19T15:45:19;12.45;;;2.15;;
44366;SDS011;30086;57.660;12.000;2023-09-19T15:47:53;10.30;;;3.00;;
44366;SDS011;30086;57.660;12.000;2023-09-19T15:50:39;13.68;;;3.33;;
44366;SDS011;30086;57.660;12.000;2023-09-19T15:56:48;1.58;;;0.28;;
44366;SDS011;30086;57.660;12.000;2023-09-19T16:03:15;14.18;;;3.10;;
44366;SDS011;30086;57.660;12.000;2023-09-19T16:11:54;16.25;;;3.65;;
44366;SDS011;30086;57.660;12.000;2023-09-19T16:14:21;9.98;;;3.22;;
44366;SDS011;30086;57.660;12.000;2023-09-19T16:16:57;14.10;;;2.78;;
44366;SDS011;30086;57.660;12.000;2023-09-19T16:19:46;15.50;;;2.88;;
44366;SDS011;30086;57.660;12.000;2023-09-19T16:29:07;16.90;;;2.85;;
44366;SDS011;30086;57.660;12.000;2023-09-19T16:32:26;13.63;;;3.15;;
44366;SDS011;30086;57.660;12.000;2023-09-19T16:35:40;13.32;;;3.40;;
44366;SDS011;30086;57.660;12.000;2023-09-19T16:38:56;11.80;;;3.30;;
44366;SDS011;30086;57.660;12.000;2023-09-19T16:51:58;0.00;;;0.00;;
44366;SDS011;30086;57.660;12.000;2023-09-19T16:54:27;0.70;;;0.38;;
44366;SDS011;30086;57.660;12.000;2023-09-19T16:56:53;0.00;;;0.00;;
44366;SDS011;30086;57.660;12.000;2023-09-19T16:59:20;0.00;;;0.00;;
44366;SDS011;30086;57.660;12.000;2023-09-19T17:02:01;0.00;;;0.00;;
44366;SDS011;30086;57.660;12.000;2023-09-19T17:04:37;0.00;;;0.00;;
44366;SDS011;30086;57.660;12.000;2023-09-19T17:07:24;0.00;;;0.00;;
44366;SDS011;30086;57.660;12.000;2023-09-19T17:10:19;0.00;;;0.00;;
44366;SDS011;30086;57.660;12.000;2023-09-19T17:12:49;0.00;;;0.00;;
44366;SDS011;30086;57.660;12.000;2023-09-19T17:15:35;0.00;;;0.00;;
44366;SDS011;30086;57.660;12.000;2023-09-19T17:18:22;0.00;;;0.00;;
44366;SDS011;30086;57.660;12.000;2023-09-19T17:21:04;0.00;;;0.00;;
44366;SDS011;30086;57.660;12.000;2023-09-19T17:23:51;0.00;;;0.00;;
44366;SDS011;30086;57.660;12.000;2023-09-19T17:27:00;0.00;;;0.00;;
44366;SDS011;30086;57.660;12.000;2023-09-19T17:29:49;0.00;;;0.00;;
44366;SDS011;30086;57.660;12.000;2023-09-19T17:32:47;0.00;;;0.00;;
44366;SDS011;30086;57.660;12.000;2023-09-19T17:35:16;0.00;;;0.00;;
44366;SDS011;30086;57.660;12.000;2023-09-19T17:37:51;0.00;;;0.00;;
44366;SDS011;30086;57.660;12.000;2023-09-19T17:40:38;0.00;;;0.00;;
44366;SDS011;30086;57.660;12.000;2023-09-19T17:46:56;0.00;;;0.00;;
44366;SDS011;30086;57.660;12.000;2023-09-19T17:49:34;0.10;;;0.10;;
44366;SDS011;30086;57.660;12.000;2023-09-19T17:52:22;0.00;;;0.00;;
44366;SDS011;30086;57.660;12.000;2023-09-19T17:54:56;0.00;;;0.00;;
44366;SDS011;30086;57.660;12.000;2023-09-19T17:57:24;0.00;;;0.00;;
44366;SDS011;30086;57.660;12.000;2023-09-19T18:00:16;0.00;;;0.00;;
44366;SDS011;30086;57.660;12.000;2023-09-19T18:02:55;0.00;;;0.00;;
44366;SDS011;30086;57.660;12.000;2023-09-19T18:05:33;0.00;;;0.00;;
44366;SDS011;30086;57.660;12.000;2023-09-19T18:08:26;0.00;;;0.00;;
44366;SDS011;30086;57.660;12.000;2023-09-19T18:11:27;0.00;;;0.00;;
44366;SDS011;30086;57.660;12.000;2023-09-19T18:14:05;0.00;;;0.00;;
44366;SDS011;30086;57.660;12.000;2023-09-19T18:17:15;16.52;;;5.55;;
44366;SDS011;30086;57.660;12.000;2023-09-19T18:20:02;7.13;;;1.95;;
44366;SDS011;30086;57.660;12.000;2023-09-19T18:22:34;0.20;;;0.20;;
44366;SDS011;30086;57.660;12.000;2023-09-19T18:25:05;30.50;;;7.90;;
44366;SDS011;30086;57.660;12.000;2023-09-19T18:27:38;23.13;;;5.28;;
44366;SDS011;30086;57.660;12.000;2023-09-19T18:30:26;8.90;;;2.97;;
44366;SDS011;30086;57.660;12.000;2023-09-19T18:32:55;31.50;;;8.88;;
44366;SDS011;30086;57.660;12.000;2023-09-19T18:35:21;0.45;;;0.08;;
44366;SDS011;30086;57.660;12.000;2023-09-19T18:38:05;11.98;;;3.60;;
44366;SDS011;30086;57.660;12.000;2023-09-19T18:40:43;30.65;;;6.72;;
44366;SDS011;30086;57.660;12.000;2023-09-19T18:43:15;29.23;;;8.93;;
44366;SDS011;30086;57.660;12.000;2023-09-19T18:46:04;34.78;;;7.32;;
44366;SDS011;30086;57.660;12.000;2023-09-19T18:48:35;0.00;;;0.00;;
44366;SDS011;30086;57.660;12.000;2023-09-19T18:51:10;9.75;;;2.72;;
44366;SDS011;30086;57.660;12.000;2023-09-19T18:53:58;0.08;;;0.03;;
44366;SDS011;30086;57.660;12.000;2023-09-19T18:56:29;39.53;;;8.80;;
44366;SDS011;30086;57.660;12.000;2023-09-19T18:59:08;40.22;;;7.15;;
44366;SDS011;30086;57.660;12.000;2023-09-19T19:01:43;44.45;;;7.53;;
44366;SDS011;30086;57.660;12.000;2023-09-19T19:04:35;37.60;;;7.45;;
44366;SDS011;30086;57.660;12.000;2023-09-19T19:07:26;33.67;;;7.63;;
44366;SDS011;30086;57.660;12.000;2023-09-19T19:10:12;26.00;;;5.07;;
44366;SDS011;30086;57.660;12.000;2023-09-19T19:12:41;29.90;;;5.53;;
44366;SDS011;30086;57.660;12.000;2023-09-19T19:15:08;23.38;;;5.60;;
44366;SDS011;30086;57.660;12.000;2023-09-19T19:17:34;29.00;;;5.68;;
44366;SDS011;30086;57.660;12.000;2023-09-19T19:20:31;27.95;;;5.22;;
44366;SDS011;30086;57.660;12.000;2023-09-19T19:23:43;22.80;;;5.80;;
44366;SDS011;30086;57.660;12.000;2023-09-19T19:26:28;32.13;;;6.00;;
44366;SDS011;30086;57.660;12.000;2023-09-19T19:28:56;22.08;;;4.18;;
44366;SDS011;30086;57.660;12.000;2023-09-19T19:31:47;0.00;;;0.00;;
44366;SDS011;30086;57.660;12.000;2023-09-19T19:34:26;33.13;;;6.55;;
44366;SDS011;30086;57.660;12.000;2023-09-19T19:37:07;23.40;;;4.80;;
44366;SDS011;30086;57.660;12.000;2023-09-19T19:40:21;29.45;;;4.85;;
44366;SDS011;30086;57.660;12.000;2023-09-19T19:43:07;27.55;;;6.68;;
44366;SDS011;30086;57.660;12.000;2023-09-19T19:45:57;22.92;;;5.05;;
44366;SDS011;30086;57.660;12.000;2023-09-19T19:48:49;34.53;;;3.95;;
44366;SDS011;30086;57.660;12.000;2023-09-19T19:51:54;37.63;;;5.75;;
44366;SDS011;30086;57.660;12.000;2023-09-19T19:54:47;25.75;;;6.47;;
44366;SDS011;30086;57.660;12.000;2023-09-19T19:57:35;29.80;;;6.85;;
44366;SDS011;30086;57.660;12.000;2023-09-19T20:00:24;22.83;;;4.78;;
44366;SDS011;30086;57.660;12.000;2023-09-19T20:03:18;27.98;;;5.80;;
44366;SDS011;30086;57.660;12.000;2023-09-19T20:06:24;26.48;;;4.40;;
44366;SDS011;30086;57.660;12.000;2023-09-19T20:09:33;26.35;;;5.95;;
44366;SDS011;30086;57.660;12.000;2023-09-19T20:18:22;28.60;;;6.10;;
44366;SDS011;30086;57.660;12.000;2023-09-19T20:24:35;15.57;;;3.40;;
44366;SDS011;30086;57.660;12.000;2023-09-19T20:30:44;14.20;;;3.45;;
44366;SDS011;30086;57.660;12.000;2023-09-19T20:33:29;26.48;;;4.25;;
44366;SDS011;30086;57.660;12.000;2023-09-19T20:36:52;26.67;;;4.55;;
44366;SDS011;30086;57.660;12.000;2023-09-19T20:42:25;17.17;;;3.67;;
44366;SDS011;30086;57.660;12.000;2023-09-19T20:44:57;19.42;;;4.57;;
44366;SDS011;30086;57.660;12.000;2023-09-19T20:48:22;12.32;;;2.40;;
44366;SDS011;30086;57.660;12.000;2023-09-19T20:54:02;10.57;;;1.88;;
44366;SDS011;30086;57.660;12.000;2023-09-19T20:56:44;5.72;;;1.80;;
44366;SDS011;30086;57.660;12.000;2023-09-19T20:59:30;6.47;;;1.88;;
44366;SDS011;30086;57.660;12.000;2023-09-19T21:02:16;4.15;;;1.23;;
44366;SDS011;30086;57.660;12.000;2023-09-19T21:04:52;5.15;;;1.42;;
44366;SDS011;30086;57.660;12.000;2023-09-19T21:07:38;7.85;;;2.35;;
44366;SDS011;30086;57.660;12.000;2023-09-19T21:10:44;20.52;;;2.67;;
44366;SDS011;30086;57.660;12.000;2023-09-19T21:13:30;11.60;;;1.80;;
44366;SDS011;30086;57.660;12.000;2023-09-19T21:16:28;7.45;;;1.80;;
44366;SDS011;30086;57.660;12.000;2023-09-19T21:19:16;9.10;;;2.03;;
44366;SDS011;30086;57.660;12.000;2023-09-19T21:21:42;7.45;;;2.20;;
44366;SDS011;30086;57.660;12.000;2023-09-19T21:24:11;8.60;;;1.92;;
44366;SDS011;30086;57.660;12.000;2023-09-19T21:26:44;5.57;;;1.40;;
44366;SDS011;30086;57.660;12.000;2023-09-19T21:29:51;7.32;;;1.35;;
44366;SDS011;30086;57.660;12.000;2023-09-19T21:32:17;5.00;;;1.25;;
44366;SDS011;30086;57.660;12.000;2023-09-19T21:34:43;4.95;;;1.33;;
44366;SDS011;30086;57.660;12.000;2023-09-19T21:37:11;5.53;;;1.27;;
44366;SDS011;30086;57.660;12.000;2023-09-19T21:39:39;1.67;;;0.73;;
44366;SDS011;30086;57.660;12.000;2023-09-19T21:42:10;4.82;;;1.30;;
44366;SDS011;30086;57.660;12.000;2023-09-19T21:44:36;5.63;;;1.33;;
44366;SDS011;30086;57.660;12.000;2023-09-19T21:47:07;3.95;;;1.02;;
44366;SDS011;30086;57.660;12.000;2023-09-19T21:49:38;6.40;;;1.17;;
44366;SDS011;30086;57.660;12.000;2023-09-19T21:52:08;2.28;;;0.73;;
44366;SDS011;30086;57.660;12.000;2023-09-19T21:54:57;3.97;;;0.93;;
44366;SDS011;30086;57.660;12.000;2023-09-19T21:57:47;6.30;;;1.38;;
44366;SDS011;30086;57.660;12.000;2023-09-19T22:00:52;7.65;;;1.13;;
44366;SDS011;30086;57.660;12.000;2023-09-19T22:09:48;2.95;;;0.20;;
44366;SDS011;30086;57.660;12.000;2023-09-19T22:12:14;2.40;;;0.60;;
44366;SDS011;30086;57.660;12.000;2023-09-19T22:14:54;3.90;;;0.75;;
44366;SDS011;30086;57.660;12.000;2023-09-19T22:17:21;3.72;;;0.85;;
44366;SDS011;30086;57.660;12.000;2023-09-19T22:23:33;6.23;;;0.90;;
44366;SDS011;30086;57.660;12.000;2023-09-19T22:26:35;3.72;;;0.70;;
44366;SDS011;30086;57.660;12.000;2023-09-19T22:29:17;2.55;;;1.05;;
44366;SDS011;30086;57.660;12.000;2023-09-19T22:32:13;2.80;;;0.68;;
44366;SDS011;30086;57.660;12.000;2023-09-19T22:34:47;2.95;;;0.63;;
44366;SDS011;30086;57.660;12.000;2023-09-19T22:37:32;4.80;;;1.08;;
44366;SDS011;30086;57.660;12.000;2023-09-19T22:40:17;0.55;;;0.30;;
44366;SDS011;30086;57.660;12.000;2023-09-19T22:42:57;3.35;;;0.70;;
44366;SDS011;30086;57.660;12.000;2023-09-19T22:48:37;4.97;;;0.57;;
44366;SDS011;30086;57.660;12.000;2023-09-19T22:51:30;0.88;;;0.40;;
44366;SDS011;30086;57.660;12.000;2023-09-19T22:54:19;3.53;;;0.90;;
44366;SDS011;30086;57.660;12.000;2023-09-19T22:57:29;2.55;;;0.60;;
44366;SDS011;30086;57.660;12.000;2023-09-19T23:00:23;2.45;;;0.60;;
44366;SDS011;30086;57.660;12.000;2023-09-19T23:03:30;3.58;;;0.50;;
44366;SDS011;30086;57.660;12.000;2023-09-19T23:06:20;1.08;;;0.47;;
44366;SDS011;30086;57.660;12.000;2023-09-19T23:09:26;2.92;;;0.70;;
44366;SDS011;30086;57.660;12.000;2023-09-19T23:11:58;4.40;;;0.65;;
44366;SDS011;30086;57.660;12.000;2023-09-19T23:18:17;4.80;;;0.80;;
44366;SDS011;30086;57.660;12.000;2023-09-19T23:21:06;5.30;;;0.77;;
44366;SDS011;30086;57.660;12.000;2023-09-19T23:24:20;6.10;;;0.90;;
44366;SDS011;30086;57.660;12.000;2023-09-19T23:27:27;1.98;;;0.63;;
44366;SDS011;30086;57.660;12.000;2023-09-19T23:30:04;5.03;;;0.70;;
44366;SDS011;30086;57.660;12.000;2023-09-19T23:36:06;4.05;;;1.00;;
44366;SDS011;30086;57.660;12.000;2023-09-19T23:39:05;3.35;;;0.93;;
44366;SDS011;30086;57.660;12.000;2023-09-19T23:42:11;6.10;;;1.83;;
44366;SDS011;30086;57.660;12.000;2023-09-19T23:45:16;3.35;;;0.80;;
44366;SDS011;30086;57.660;12.000;2023-09-19T23:48:00;5.68;;;0.70;;
44366;SDS011;30086;57.660;12.000;2023-09-19T23:50:49;3.22;;;1.10;;
44366;SDS011;30086;57.660;12.000;2023-09-19T23:53:37;7.28;;;1.20;;
44366;SDS011;30086;57.660;12.000;2023-09-19T23:56:03;3.10;;;1.17;;
44366;SDS011;30086;57.660;12.000;2023-09-19T23:58:34;4.32;;;1.08;;
